Time;durP1;ratioP1;P1;durP2;ratioP2;P2;SDS_P1;SDS_P2;PMS_P1;PMS_P2;Temp;Humidity;BMP_temperature;BMP_pressure;BME280_temperature;BME280_humidity;BME280_pressure;Samples;Min_cycle;Max_cycle;Signal;HPM_P1;HPM_P2
2022/07/16 00:02:54;;;;;;;0.10;0.10;;;;;;;19.69;50.06;101952.03;7355767;19;20034;-60
2022/07/16 00:05:20;;;;;;;0.00;0.00;;;;;;;19.65;49.62;101954.84;7356189;19;20002;-60
2022/07/16 00:07:45;;;;;;;0.00;0.00;;;;;;;19.62;49.62;101952.34;7360458;19;20070;-60
2022/07/16 00:10:11;;;;;;;0.00;0.00;;;;;;;19.57;49.60;101951.66;7363934;19;20018;-60
2022/07/16 00:12:36;;;;;;;0.03;0.03;;;;;;;19.53;49.89;101942.09;7362020;19;20006;-60
2022/07/16 00:15:03;;;;;;;0.00;0.00;;;;;;;19.50;50.05;101944.84;7362680;19;20025;-60
2022/07/16 00:17:28;;;;;;;0.00;0.00;;;;;;;19.45;49.91;101934.44;7361078;19;20095;-60
2022/07/16 00:19:54;;;;;;;0.00;0.00;;;;;;;19.33;49.68;101925.19;7355226;19;20097;-60
2022/07/16 00:22:19;;;;;;;0.03;0.03;;;;;;;19.29;50.19;101920.06;7359537;19;20010;-62
2022/07/16 00:24:45;;;;;;;0.00;0.00;;;;;;;19.33;49.63;101929.63;7354526;19;20042;-62
2022/07/16 00:27:10;;;;;;;0.00;0.00;;;;;;;19.27;50.28;101930.75;7355136;19;20014;-62
2022/07/16 00:29:36;;;;;;;0.00;0.00;;;;;;;19.23;50.25;101923.84;7357677;19;20581;-62
2022/07/16 00:32:01;;;;;;;0.00;0.00;;;;;;;19.08;50.17;101911.19;7356282;19;20089;-62
2022/07/16 00:34:27;;;;;;;0.10;0.10;;;;;;;19.09;50.33;101920.84;7358171;19;20344;-62
2022/07/16 00:36:52;;;;;;;0.00;0.00;;;;;;;19.03;50.39;101915.81;7361812;19;20010;-62
2022/07/16 00:39:18;;;;;;;0.00;0.00;;;;;;;19.03;50.02;101921.09;7361794;19;20068;-61
2022/07/16 00:41:45;;;;;;;0.00;0.00;;;;;;;18.98;50.50;101926.56;7360578;19;20027;-62
2022/07/16 00:44:14;;;;;;;0.00;0.00;;;;;;;18.85;50.32;101918.22;7361806;19;20944;-62
2022/07/16 00:46:40;;;;;;;0.00;0.00;;;;;;;18.83;50.05;101914.78;7360903;19;20006;-63
2022/07/16 00:49:06;;;;;;;0.10;0.10;;;;;;;18.82;49.88;101922.78;7359462;19;20038;-62
2022/07/16 00:51:33;;;;;;;0.10;0.10;;;;;;;18.77;50.34;101920.31;7360193;19;20006;-62
2022/07/16 00:53:58;;;;;;;0.00;0.00;;;;;;;18.73;50.54;101923.13;7359717;19;20533;-62
2022/07/16 00:56:25;;;;;;;0.00;0.00;;;;;;;18.68;50.41;101923.28;7360067;19;20017;-62
2022/07/16 00:58:52;;;;;;;0.00;0.00;;;;;;;18.61;50.26;101922.63;7360697;19;20864;-62
2022/07/16 01:01:18;;;;;;;0.00;0.00;;;;;;;18.57;50.93;101920.16;7361916;19;20109;-62
2022/07/16 01:03:45;;;;;;;0.00;0.00;;;;;;;18.50;51.77;101921.28;7359161;19;20709;-62
2022/07/16 01:06:11;;;;;;;0.00;0.00;;;;;;;18.49;51.13;101922.19;7359398;19;20006;-62
2022/07/16 01:08:39;;;;;;;0.00;0.00;;;;;;;18.44;51.08;101916.22;7356188;19;20006;-62
2022/07/16 01:11:08;;;;;;;0.00;0.00;;;;;;;18.27;51.04;101896.53;7357060;19;20014;-62
2022/07/16 01:13:34;;;;;;;0.00;0.00;;;;;;;18.36;51.30;101920.00;7359642;19;20017;-61
2022/07/16 01:16:00;;;;;;;0.00;0.00;;;;;;;18.33;51.28;101919.25;7358904;19;20033;-62
2022/07/16 01:18:26;;;;;;;0.00;0.00;;;;;;;18.19;51.68;101901.22;7359614;19;21252;-62
2022/07/16 01:20:51;;;;;;;0.00;0.00;;;;;;;18.26;51.29;101912.47;7360427;19;20008;-62
2022/07/16 01:23:21;;;;;;;0.00;0.00;;;;;;;18.22;50.96;101906.41;7359166;19;20002;-62
2022/07/16 01:25:47;;;;;;;0.00;0.00;;;;;;;18.18;52.56;101911.84;7359141;19;20003;-62
2022/07/16 01:28:13;;;;;;;0.00;0.00;;;;;;;18.15;52.03;101916.34;7362390;19;20023;-62
2022/07/16 01:30:38;;;;;;;0.00;0.00;;;;;;;18.12;52.53;101915.56;7362920;19;20095;-62
2022/07/16 01:33:33;;;;;;;0.00;0.00;;;;;;;18.13;51.07;101919.94;7361465;19;20455;-62
2022/07/16 01:36:07;;;;;;;0.00;0.00;;;;;;;18.09;52.24;101908.59;7258597;19;2004703;-63
2022/07/16 01:38:33;;;;;;;0.00;0.00;;;;;;;18.07;53.10;101906.94;7364005;19;20427;-61
2022/07/16 01:40:59;;;;;;;0.00;0.00;;;;;;;17.98;53.39;101896.69;7363120;19;20065;-62
2022/07/16 01:43:27;;;;;;;0.00;0.00;;;;;;;18.05;53.37;101911.44;7361550;19;20872;-62
2022/07/16 01:45:54;;;;;;;0.00;0.00;;;;;;;18.04;53.00;101913.19;7361467;19;20031;-61
2022/07/16 01:48:20;;;;;;;0.00;0.00;;;;;;;18.01;53.16;101907.16;7361870;19;20056;-62
2022/07/16 01:50:46;;;;;;;0.00;0.00;;;;;;;18.02;53.59;101919.47;7360606;19;20043;-62
2022/07/16 01:53:13;;;;;;;0.00;0.00;;;;;;;18.01;53.37;101915.09;7365042;19;20010;-62
2022/07/16 01:55:39;;;;;;;0.00;0.00;;;;;;;17.97;53.64;101922.25;7368178;19;20007;-62
2022/07/16 01:58:06;;;;;;;0.00;0.00;;;;;;;17.99;53.63;101925.69;7358254;19;20026;-62
2022/07/16 02:00:35;;;;;;;0.00;0.00;;;;;;;18.00;53.87;101929.22;7369815;19;20006;-62
2022/07/16 02:03:00;;;;;;;0.10;0.10;;;;;;;17.95;53.72;101913.53;7365788;19;20420;-62
2022/07/16 02:05:26;;;;;;;0.10;0.10;;;;;;;17.94;53.72;101916.19;7365521;19;20011;-62
2022/07/16 02:07:52;;;;;;;0.00;0.00;;;;;;;17.95;53.88;101920.59;7366537;19;20010;-62
2022/07/16 02:10:17;;;;;;;0.00;0.00;;;;;;;17.94;54.45;101916.19;7368394;19;20010;-62
2022/07/16 02:12:43;;;;;;;0.00;0.00;;;;;;;17.88;54.58;101904.91;7363998;19;20014;-62
2022/07/16 02:15:09;;;;;;;0.10;0.10;;;;;;;17.91;54.62;101913.69;7367084;19;20422;-62
2022/07/16 02:17:35;;;;;;;0.00;0.00;;;;;;;17.90;54.98;101912.81;7364640;19;20010;-62
2022/07/16 02:20:05;;;;;;;0.00;0.00;;;;;;;17.91;54.39;101911.03;7366834;19;20018;-63
2022/07/16 02:22:31;;;;;;;0.03;0.03;;;;;;;17.89;54.81;101911.97;7363857;19;20014;-62
2022/07/16 02:24:56;;;;;;;0.10;0.10;;;;;;;17.74;54.66;101883.41;7368623;19;20348;-62
2022/07/16 02:27:22;;;;;;;0.00;0.00;;;;;;;17.88;54.68;101907.56;7364594;19;20022;-63
2022/07/16 02:29:47;;;;;;;0.05;0.05;;;;;;;17.88;54.91;101901.41;7366930;19;20077;-61
2022/07/16 02:32:13;;;;;;;0.00;0.00;;;;;;;17.86;55.24;101909.41;7364056;19;20006;-62
2022/07/16 02:34:38;;;;;;;0.00;0.00;;;;;;;17.85;55.26;101901.53;7366745;19;20011;-62
2022/07/16 02:37:04;;;;;;;0.00;0.00;;;;;;;17.85;55.50;101896.25;7361564;19;20089;-62
2022/07/16 02:39:29;;;;;;;0.00;0.00;;;;;;;17.81;56.36;101895.47;7367900;19;20601;-62
2022/07/16 02:41:55;;;;;;;0.00;0.00;;;;;;;17.84;57.49;101900.69;7364473;19;20469;-62
2022/07/16 02:44:20;;;;;;;0.00;0.00;;;;;;;17.85;56.81;101901.53;7365056;19;20006;-62
2022/07/16 02:46:46;;;;;;;0.00;0.00;;;;;;;17.85;57.32;101905.03;7361548;19;20095;-62
2022/07/16 02:49:11;;;;;;;0.00;0.00;;;;;;;17.85;57.18;101901.53;7366371;19;20879;-62
2022/07/16 02:51:36;;;;;;;0.00;0.00;;;;;;;17.83;56.97;101898.94;7363078;19;20011;-62
2022/07/16 02:54:02;;;;;;;0.10;0.10;;;;;;;17.83;56.56;101893.63;7365003;19;20144;-62
2022/07/16 02:56:27;;;;;;;0.00;0.00;;;;;;;17.76;57.52;101892.13;7365941;19;20468;-62
2022/07/16 02:58:53;;;;;;;0.00;0.00;;;;;;;17.81;56.93;101900.78;7361207;19;20040;-62
2022/07/16 03:01:18;;;;;;;0.00;0.00;;;;;;;17.74;56.94;101899.25;7366792;19;20006;-62
2022/07/16 03:03:44;;;;;;;0.00;0.00;;;;;;;17.78;56.78;101911.44;7355967;19;20082;-63
2022/07/16 03:06:09;;;;;;;0.00;0.00;;;;;;;17.77;56.89;101904.44;7363988;19;20034;-62
2022/07/16 03:08:35;;;;;;;0.00;0.00;;;;;;;17.74;56.47;101904.53;7366026;19;20038;-62
2022/07/16 03:11:00;;;;;;;0.00;0.00;;;;;;;17.70;56.28;101896.75;7368209;19;20377;-62
2022/07/16 03:13:25;;;;;;;0.00;0.00;;;;;;;17.70;56.52;101902.88;7361758;19;20430;-62
2022/07/16 03:15:53;;;;;;;0.00;0.00;;;;;;;17.67;56.23;101908.25;7362802;19;20033;-62
2022/07/16 03:18:19;;;;;;;0.00;0.00;;;;;;;17.61;56.68;101892.63;7364811;19;20715;-62
2022/07/16 03:20:45;;;;;;;0.10;0.10;;;;;;;17.61;56.93;101892.63;7356133;19;20015;-62
2022/07/16 03:23:10;;;;;;;0.10;0.10;;;;;;;17.59;57.13;101902.38;7362470;19;20029;-63
2022/07/16 03:25:36;;;;;;;0.10;0.10;;;;;;;17.55;56.91;101888.41;7363203;19;20014;-62
2022/07/16 03:28:01;;;;;;;0.00;0.00;;;;;;;17.52;57.21;101893.78;7367467;19;20647;-62
2022/07/16 03:30:27;;;;;;;0.00;0.00;;;;;;;17.52;56.96;101895.56;7365625;19;20042;-62
2022/07/16 03:32:52;;;;;;;0.05;0.05;;;;;;;17.49;57.26;101898.31;7366220;19;20019;-62
2022/07/16 03:35:18;;;;;;;0.00;0.00;;;;;;;17.46;56.94;101893.97;7365775;19;20037;-62
2022/07/16 03:40:28;;;;;;;0.08;0.08;;;;;;;17.40;56.84;101886.25;7367714;19;20019;-62
2022/07/16 03:42:53;;;;;;;0.05;0.05;;;;;;;17.38;57.71;101891.56;7362924;19;20034;-60
2022/07/16 03:45:19;;;;;;;0.00;0.00;;;;;;;17.35;57.30;101886.41;7365375;19;20810;-62
2022/07/16 03:47:45;;;;;;;0.00;0.00;;;;;;;17.34;57.76;101887.31;7367233;19;20027;-62
2022/07/16 03:50:11;;;;;;;0.00;0.00;;;;;;;17.30;57.19;101885.69;7364718;19;20490;-62
2022/07/16 03:52:36;;;;;;;0.00;0.00;;;;;;;17.26;57.42;101875.25;7365839;19;20922;-62
2022/07/16 03:55:02;;;;;;;0.00;0.00;;;;;;;17.19;57.16;101879.88;7366224;19;20010;-62
2022/07/16 03:57:27;;;;;;;0.00;0.00;;;;;;;17.16;57.96;101881.75;7366470;19;20046;-60
2022/07/16 03:59:52;;;;;;;0.00;0.00;;;;;;;17.10;57.99;101882.81;7365601;19;20025;-62
2022/07/16 04:02:18;;;;;;;0.00;0.00;;;;;;;17.06;57.68;101889.09;7368632;19;20014;-62
2022/07/16 04:04:44;;;;;;;0.10;0.10;;;;;;;17.03;57.93;101883.88;7365134;19;20110;-62
2022/07/16 04:07:09;;;;;;;0.00;0.00;;;;;;;16.99;57.66;101882.28;7367470;19;20009;-62
2022/07/16 04:09:35;;;;;;;0.00;0.00;;;;;;;16.97;57.48;101868.25;7365577;19;20010;-62
2022/07/16 04:12:00;;;;;;;0.00;0.00;;;;;;;16.96;57.96;101869.16;7367550;19;20111;-62
2022/07/16 04:14:25;;;;;;;0.00;0.00;;;;;;;16.89;57.84;101862.38;7362558;19;20018;-62
2022/07/16 04:16:51;;;;;;;0.00;0.00;;;;;;;16.92;58.11;101880.72;7367113;19;20010;-62
2022/07/16 04:19:17;;;;;;;0.10;0.10;;;;;;;16.90;58.14;101878.13;7363614;19;20014;-62
2022/07/16 04:21:42;;;;;;;0.10;0.10;;;;;;;16.88;58.43;101879.06;7366451;19;20011;-62
2022/07/16 04:24:07;;;;;;;0.00;0.00;;;;;;;16.88;57.83;101879.06;7363136;19;20014;-63
2022/07/16 04:26:33;;;;;;;0.00;0.00;;;;;;;16.82;57.67;101873.06;7368055;19;20007;-62
2022/07/16 04:28:58;;;;;;;0.03;0.03;;;;;;;16.79;57.98;101873.19;7363643;19;20014;-62
2022/07/16 04:31:24;;;;;;;0.00;0.00;;;;;;;16.83;58.34;101877.47;7365358;19;20019;-63
2022/07/16 04:33:49;;;;;;;0.00;0.00;;;;;;;16.80;57.95;101880.19;7365206;19;20041;-62
2022/07/16 04:36:15;;;;;;;0.00;0.00;;;;;;;16.80;57.98;101877.53;7367073;19;20010;-63
2022/07/16 04:38:41;;;;;;;0.00;0.00;;;;;;;16.79;57.93;101881.09;7365551;19;20018;-62
2022/07/16 04:41:06;;;;;;;0.00;0.00;;;;;;;16.79;58.50;101886.38;7364773;19;20021;-62
2022/07/16 04:43:31;;;;;;;0.00;0.00;;;;;;;16.76;57.88;101883.81;7362441;19;20014;-63
2022/07/16 04:45:57;;;;;;;0.00;0.00;;;;;;;16.77;57.66;101882.91;7365916;19;20015;-62
2022/07/16 04:48:22;;;;;;;0.00;0.00;;;;;;;16.73;57.72;101876.00;7363914;19;20010;-62
2022/07/16 04:50:48;;;;;;;0.00;0.00;;;;;;;16.72;57.89;101871.63;7365087;19;20119;-62
2022/07/16 04:53:13;;;;;;;0.00;0.00;;;;;;;16.76;57.43;101877.69;7362814;19;20010;-62
2022/07/16 04:55:39;;;;;;;0.00;0.00;;;;;;;16.66;57.82;101863.88;7363001;19;20014;-62
2022/07/16 04:58:05;;;;;;;0.00;0.00;;;;;;;16.73;57.64;101875.16;7361094;19;20006;-62
2022/07/16 05:00:30;;;;;;;0.00;0.00;;;;;;;16.72;58.43;101876.91;7365456;19;20010;-62
2022/07/16 05:02:58;;;;;;;0.10;0.10;;;;;;;16.66;58.73;101863.88;7363192;19;20015;-62
2022/07/16 05:05:34;;;;;;;0.00;0.00;;;;;;;16.74;57.78;101876.88;7362770;19;20006;-63
2022/07/16 05:08:01;;;;;;;0.00;0.00;;;;;;;16.73;58.67;101876.00;7362258;19;20017;-63
2022/07/16 05:10:28;;;;;;;0.00;0.00;;;;;;;16.72;58.99;101884.81;7363499;19;20070;-62
2022/07/16 05:12:55;;;;;;;0.00;0.00;;;;;;;16.74;58.59;101877.72;7362547;19;20444;-62
2022/07/16 05:15:21;;;;;;;0.10;0.10;;;;;;;16.75;58.07;101887.38;7363578;19;20597;-62
2022/07/16 05:17:47;;;;;;;0.00;0.00;;;;;;;16.76;58.74;101889.09;7362551;19;20010;-62
2022/07/16 05:20:12;;;;;;;0.00;0.00;;;;;;;16.78;58.76;101876.75;7364455;19;20003;-62
2022/07/16 05:22:37;;;;;;;0.00;0.00;;;;;;;16.80;58.99;101881.97;7363242;19;20011;-62
2022/07/16 05:25:05;;;;;;;0.00;0.00;;;;;;;16.69;58.59;101858.50;7362885;19;20413;-62
2022/07/16 05:27:31;;;;;;;0.00;0.00;;;;;;;16.83;58.92;101884.53;7361648;19;20090;-62
2022/07/16 05:29:56;;;;;;;0.00;0.00;;;;;;;16.86;58.21;101877.34;7363493;19;20010;-63
2022/07/16 05:32:21;;;;;;;0.00;0.00;;;;;;;16.90;58.83;101882.56;7365258;19;20023;-62
2022/07/16 05:34:47;;;;;;;0.00;0.00;;;;;;;16.81;59.53;101863.44;7363810;19;20010;-62
2022/07/16 05:37:12;;;;;;;0.00;0.00;;;;;;;16.96;59.09;101877.09;7365286;19;20383;-62
2022/07/16 05:39:38;;;;;;;0.00;0.00;;;;;;;16.99;58.99;101877.00;7362265;19;20011;-62
2022/07/16 05:42:03;;;;;;;0.00;0.00;;;;;;;17.02;58.59;101876.88;7362013;19;20006;-62
2022/07/16 05:44:28;;;;;;;0.00;0.00;;;;;;;17.06;58.95;101882.03;7361792;19;20076;-63
2022/07/16 05:46:54;;;;;;;0.00;0.00;;;;;;;17.09;59.35;101883.72;7365513;19;20014;-63
2022/07/16 05:49:19;;;;;;;0.10;0.10;;;;;;;17.05;59.75;101867.09;7363280;19;20014;-62
2022/07/16 05:51:45;;;;;;;0.00;0.00;;;;;;;17.16;59.09;101874.69;7364460;19;20018;-62
2022/07/16 05:54:10;;;;;;;0.00;0.00;;;;;;;17.20;59.41;101886.88;7362258;19;20017;-62
2022/07/16 05:56:36;;;;;;;0.00;0.00;;;;;;;17.24;59.93;101893.81;7361846;19;20017;-62
2022/07/16 05:59:02;;;;;;;0.00;0.00;;;;;;;17.27;59.48;101883.13;7357165;19;20002;-62
2022/07/16 06:01:29;;;;;;;0.00;0.00;;;;;;;17.32;59.37;101890.91;7360766;19;20033;-62
2022/07/16 06:03:54;;;;;;;0.00;0.00;;;;;;;17.36;59.00;101892.53;7361380;19;20074;-62
2022/07/16 06:06:20;;;;;;;0.10;0.10;;;;;;;17.41;59.01;101892.41;7363147;19;20078;-63
2022/07/16 06:08:45;;;;;;;0.00;0.00;;;;;;;17.46;58.88;101887.84;7363082;19;20011;-62
2022/07/16 06:11:10;;;;;;;0.00;0.00;;;;;;;17.51;58.98;101893.81;7360203;19;20007;-63
2022/07/16 06:13:36;;;;;;;0.10;0.10;;;;;;;17.56;59.06;101894.53;7360879;19;20013;-63
2022/07/16 06:16:02;;;;;;;0.00;0.00;;;;;;;17.62;59.66;101891.69;7359215;19;20014;-62
2022/07/16 06:18:28;;;;;;;0.10;0.10;;;;;;;17.68;59.51;101883.56;7359746;19;20006;-62
2022/07/16 06:20:53;;;;;;;0.00;0.00;;;;;;;17.74;59.29;101890.44;7361032;19;20025;-63
2022/07/16 06:23:19;;;;;;;0.00;0.00;;;;;;;17.72;59.49;101879.91;7358436;19;20011;-62
2022/07/16 06:25:44;;;;;;;0.08;0.08;;;;;;;17.87;58.63;101895.28;7361555;19;20588;-62
2022/07/16 06:28:10;;;;;;;0.00;0.00;;;;;;;17.92;59.01;101887.19;7360188;19;20030;-62
2022/07/16 06:30:35;;;;;;;0.10;0.10;;;;;;;17.98;58.61;101886.09;7360026;19;20006;-62
2022/07/16 06:33:00;;;;;;;0.10;0.10;;;;;;;18.08;58.51;101892.81;7360879;19;20470;-62
2022/07/16 06:35:26;;;;;;;0.10;0.10;;;;;;;18.15;58.95;101889.03;7359392;19;20043;-62
2022/07/16 06:37:51;;;;;;;0.00;0.00;;;;;;;18.22;58.72;101893.19;7361748;19;20014;-62
2022/07/16 06:40:17;;;;;;;0.10;0.10;;;;;;;18.16;59.13;101874.91;7366503;19;20007;-62
2022/07/16 06:42:43;;;;;;;0.08;0.08;;;;;;;18.35;58.72;101897.13;7368072;19;20115;-62
2022/07/16 06:45:09;;;;;;;0.10;0.10;;;;;;;18.35;59.25;101891.84;7365618;19;20052;-62
2022/07/16 06:47:35;;;;;;;0.10;0.10;;;;;;;18.38;59.64;101882.91;7368095;19;20011;-62
2022/07/16 06:50:00;;;;;;;0.03;0.03;;;;;;;18.56;58.57;101907.84;7365848;19;20019;-62
2022/07/16 06:52:26;;;;;;;0.10;0.10;;;;;;;18.62;58.51;101904.97;7367560;19;20021;-62
2022/07/16 06:54:51;;;;;;;0.00;0.00;;;;;;;18.67;59.00;101908.31;7367161;19;22147;-62
2022/07/16 06:57:18;;;;;;;0.10;0.10;;;;;;;18.71;58.47;101904.66;7368161;19;20302;-62
2022/07/16 06:59:44;;;;;;;0.00;0.00;;;;;;;18.78;58.65;101905.28;7365652;19;20673;-62
2022/07/16 07:02:09;;;;;;;0.03;0.03;;;;;;;18.78;57.79;101906.16;7367324;19;20014;-62
2022/07/16 07:04:34;;;;;;;0.10;0.10;;;;;;;18.87;58.33;101916.38;7366988;19;20022;-62
2022/07/16 07:07:00;;;;;;;0.00;0.00;;;;;;;18.91;58.57;101911.84;7364019;19;20029;-62
2022/07/16 07:09:25;;;;;;;0.10;0.10;;;;;;;18.95;58.40;101912.56;7368222;19;20048;-62
2022/07/16 07:11:51;;;;;;;0.03;0.03;;;;;;;19.02;59.35;101920.25;7367226;19;20416;-62
2022/07/16 07:14:16;;;;;;;0.00;0.00;;;;;;;19.06;58.28;101910.38;7367854;19;20015;-63
2022/07/16 07:16:41;;;;;;;0.00;0.00;;;;;;;19.11;59.10;101916.34;7365659;19;20010;-62
2022/07/16 07:19:07;;;;;;;0.03;0.03;;;;;;;19.15;58.44;101915.31;7366161;19;20002;-62
2022/07/16 07:21:32;;;;;;;0.10;0.10;;;;;;;19.19;59.32;101917.78;7366264;19;20098;-62
2022/07/16 07:23:58;;;;;;;0.10;0.10;;;;;;;19.25;59.32;101915.81;7363513;19;20010;-62
2022/07/16 07:26:24;;;;;;;0.00;0.00;;;;;;;19.31;59.48;101919.09;7369024;19;20408;-62
2022/07/16 07:28:49;;;;;;;0.00;0.00;;;;;;;19.34;59.78;101911.03;7365530;19;20010;-62
2022/07/16 07:31:14;;;;;;;0.00;0.00;;;;;;;19.42;60.20;101914.25;7364242;19;20010;-62
2022/07/16 07:33:40;;;;;;;0.03;0.03;;;;;;;19.43;59.73;101910.66;7360980;19;20054;-62
2022/07/16 07:36:06;;;;;;;0.03;0.03;;;;;;;19.53;59.72;101912.94;7362763;19;20043;-61
2022/07/16 07:38:32;;;;;;;0.10;0.10;;;;;;;19.53;60.22;101910.28;7361999;19;20018;-62
2022/07/16 07:40:58;;;;;;;0.08;0.08;;;;;;;19.62;59.90;101916.09;7361406;19;20486;-62
2022/07/16 07:43:23;;;;;;;0.05;0.05;;;;;;;19.67;59.19;101907.97;7364020;19;20452;-62
2022/07/16 07:45:49;;;;;;;0.10;0.10;;;;;;;19.72;60.24;101905.09;7363174;19;20010;-62
2022/07/16 07:48:14;;;;;;;0.03;0.03;;;;;;;19.76;59.42;101912.88;7362209;19;20010;-62
2022/07/16 07:50:40;;;;;;;0.00;0.00;;;;;;;19.80;59.19;101908.31;7358107;19;20014;-62
2022/07/16 07:53:06;;;;;;;0.00;0.00;;;;;;;19.86;60.08;101922.16;7363138;19;20021;-62
2022/07/16 07:55:32;;;;;;;0.10;0.10;;;;;;;19.91;59.88;101920.16;7361044;19;20013;-62
2022/07/16 07:57:58;;;;;;;0.10;0.10;;;;;;;19.95;59.50;101913.81;7362266;19;20010;-61
2022/07/16 08:00:23;;;;;;;0.10;0.10;;;;;;;20.01;59.96;101917.13;7364913;19;20006;-61
2022/07/16 08:02:49;;;;;;;0.10;0.10;;;;;;;20.04;59.86;101925.84;7364907;19;20027;-62
2022/07/16 08:05:15;;;;;;;0.10;0.10;;;;;;;20.11;59.45;101921.97;7361525;19;20021;-61
2022/07/16 08:07:42;;;;;;;0.00;0.00;;;;;;;20.17;59.46;101926.16;7362647;19;20006;-62
2022/07/16 08:10:08;;;;;;;0.00;0.00;;;;;;;20.21;59.36;101919.78;7364074;19;20918;-62
2022/07/16 08:12:35;;;;;;;0.00;0.00;;;;;;;20.19;59.04;101897.78;7361900;19;20495;-62
2022/07/16 08:15:01;;;;;;;0.00;0.00;;;;;;;20.25;59.00;101900.16;7364196;19;20515;-62
2022/07/16 08:17:26;;;;;;;0.10;0.10;;;;;;;20.40;58.84;101920.72;7366063;19;20088;-62
2022/07/16 08:19:52;;;;;;;0.10;0.10;;;;;;;20.46;59.32;101914.25;7363854;19;20343;-62
2022/07/16 08:22:17;;;;;;;0.00;0.00;;;;;;;20.54;59.16;101922.78;7365318;19;20017;-62
2022/07/16 08:27:26;;;;;;;0.10;0.10;;;;;;;20.68;58.75;101919.50;7365155;19;20025;-61
2022/07/16 08:29:52;;;;;;;0.10;0.10;;;;;;;20.65;58.89;101906.38;7360228;19;20010;-62
2022/07/16 08:32:17;;;;;;;0.10;0.10;;;;;;;20.78;58.68;101920.78;7361566;19;20455;-62
2022/07/16 08:34:43;;;;;;;0.10;0.10;;;;;;;20.82;58.42;101911.75;7364378;19;20006;-62
2022/07/16 08:37:10;;;;;;;0.03;0.03;;;;;;;20.80;58.48;101900.38;7362742;19;20022;-62
2022/07/16 08:39:43;;;;;;;0.00;0.00;;;;;;;20.98;57.58;101907.47;7361871;19;20053;-60
2022/07/16 08:42:12;;;;;;;0.10;0.10;;;;;;;21.07;58.50;101915.94;7361559;19;20014;-62
2022/07/16 08:44:39;;;;;;;0.08;0.08;;;;;;;21.15;57.91;101919.94;7363805;19;20030;-61
2022/07/16 08:47:08;;;;;;;0.08;0.08;;;;;;;21.22;57.61;101925.81;7362665;19;20060;-62
2022/07/16 08:49:35;;;;;;;0.10;0.10;;;;;;;21.31;57.61;101920.09;7360700;19;20467;-62
2022/07/16 08:52:02;;;;;;;0.10;0.10;;;;;;;21.38;57.37;101916.19;7362169;19;20033;-61
2022/07/16 08:54:28;;;;;;;0.00;0.00;;;;;;;21.45;57.22;101917.66;7362552;19;20850;-62
2022/07/16 08:56:53;;;;;;;0.00;0.00;;;;;;;21.54;56.94;101921.63;7361144;19;20010;-61
2022/07/16 08:59:19;;;;;;;0.10;0.10;;;;;;;21.49;57.19;101897.97;7363587;19;21201;-62
2022/07/16 09:01:44;;;;;;;0.05;0.05;;;;;;;21.73;57.06;101910.94;7362884;19;20010;-62
2022/07/16 09:04:10;;;;;;;0.00;0.00;;;;;;;21.83;56.31;101917.53;7361214;19;20010;-61
2022/07/16 09:06:35;;;;;;;0.00;0.00;;;;;;;21.93;56.83;101918.78;7361041;19;20499;-62
2022/07/16 09:09:01;;;;;;;0.00;0.00;;;;;;;22.03;56.75;101925.34;7361483;19;20007;-62
2022/07/16 09:11:29;;;;;;;0.10;0.10;;;;;;;22.16;56.54;101924.78;7364718;19;20636;-62
2022/07/16 09:14:13;;;;;;;0.10;0.10;;;;;;;22.32;56.20;101920.34;7361118;19;20073;-61
2022/07/16 09:16:44;;;;;;;0.10;0.10;;;;;;;22.42;56.03;101920.75;7360698;19;20021;-63
2022/07/16 09:19:16;;;;;;;0.05;0.05;;;;;;;22.50;56.13;101924.69;7358823;19;20105;-62
2022/07/16 09:22:02;;;;;;;0.10;0.10;;;;;;;22.62;54.97;101906.38;7362737;19;20029;-62
2022/07/16 09:24:31;;;;;;;0.03;0.03;;;;;;;22.76;55.52;101909.16;7362449;19;20010;-62
2022/07/16 09:27:06;;;;;;;0.10;0.10;;;;;;;22.98;55.28;101915.03;7362316;19;20108;-62
2022/07/16 09:30:02;;;;;;;0.10;0.10;;;;;;;23.22;55.02;101912.81;7362224;19;20014;-62
2022/07/16 09:32:36;;;;;;;0.00;0.00;;;;;;;23.42;54.95;101906.34;7260689;19;2004372;-62
2022/07/16 09:35:10;;;;;;;0.00;0.00;;;;;;;23.71;54.78;101906.47;7362825;19;20014;-62
2022/07/16 09:37:54;;;;;;;0.00;0.00;;;;;;;24.06;54.21;101894.53;7361986;19;20831;-62
2022/07/16 09:40:28;;;;;;;0.10;0.10;;;;;;;24.46;53.22;101896.63;7361956;19;20015;-62
2022/07/16 09:42:54;;;;;;;0.10;0.10;;;;;;;24.70;52.23;101895.09;7357402;19;20025;-62
2022/07/16 09:45:20;;;;;;;0.10;0.10;;;;;;;25.02;51.91;101885.00;7363041;19;20010;-62
2022/07/16 09:47:46;;;;;;;0.00;0.00;;;;;;;25.40;50.96;101884.38;7360223;19;20011;-63
2022/07/16 09:50:12;;;;;;;0.10;0.10;;;;;;;25.80;50.37;101882.56;7350535;19;20382;-62
2022/07/16 09:52:38;;;;;;;0.10;0.10;;;;;;;26.22;49.41;101883.25;7355069;19;20010;-62
2022/07/16 09:55:04;;;;;;;0.10;0.10;;;;;;;26.63;48.28;101888.38;7361023;19;20010;-62
2022/07/16 09:57:30;;;;;;;0.10;0.10;;;;;;;27.00;48.46;101890.19;7359672;19;20003;-62
2022/07/16 09:59:57;;;;;;;0.10;0.10;;;;;;;27.35;46.79;101901.03;7342006;19;20013;-63
2022/07/16 10:02:23;;;;;;;0.00;0.00;;;;;;;27.65;46.63;101885.31;7357686;19;20010;-62
2022/07/16 10:04:49;;;;;;;0.10;0.10;;;;;;;27.96;46.43;101893.72;7353238;19;20044;-63
2022/07/16 10:07:16;;;;;;;0.00;0.00;;;;;;;28.26;45.35;101897.69;7356685;19;20010;-62
2022/07/16 10:09:42;;;;;;;0.05;0.05;;;;;;;28.56;44.25;101895.28;7356992;19;20006;-62
2022/07/16 10:12:11;;;;;;;0.00;0.00;;;;;;;28.86;43.50;101899.19;7347792;19;20030;-62
2022/07/16 10:14:40;;;;;;;0.10;0.10;;;;;;;29.11;43.99;101901.59;7354656;19;20464;-62
2022/07/16 10:17:18;;;;;;;0.10;0.10;;;;;;;29.44;44.55;101902.47;7345002;19;20011;-62
2022/07/16 10:19:45;;;;;;;0.10;0.10;;;;;;;29.57;42.26;101908.56;7358270;19;20011;-62
2022/07/16 10:22:10;;;;;;;0.00;0.00;;;;;;;29.83;43.11;101903.66;7361152;19;20022;-62
2022/07/16 10:24:54;;;;;;;0.10;0.10;;;;;;;30.28;44.02;101907.94;7354851;19;20023;-62
2022/07/16 10:27:34;;;;;;;0.00;0.00;;;;;;;30.54;42.23;101911.06;7364080;19;20014;-62
2022/07/16 10:30:14;;;;;;;;;;;;;;;30.95;44.30;101920.88;7362775;19;20134;-62
2022/07/16 10:33:10;;;;;;;0.10;0.10;;;;;;;31.19;42.78;101915.97;7369144;19;21256;-62
2022/07/16 10:35:45;;;;;;;0.00;0.00;;;;;;;31.47;40.97;101918.84;7263613;19;2004637;-62
2022/07/16 10:38:13;;;;;;;0.10;0.10;;;;;;;31.67;38.34;101925.09;7368071;19;20049;-62
2022/07/16 10:40:42;;;;;;;0.00;0.00;;;;;;;31.86;38.16;101919.72;7367308;19;20779;-61
2022/07/16 10:43:20;;;;;;;0.00;0.00;;;;;;;32.21;39.81;101924.47;7365353;19;20078;-62
2022/07/16 10:45:58;;;;;;;0.00;0.00;;;;;;;32.50;39.83;101923.56;7365216;19;20006;-62
2022/07/16 10:48:26;;;;;;;0.00;0.00;;;;;;;32.73;37.03;101922.16;7365355;19;20034;-62
2022/07/16 10:51:14;;;;;;;0.00;0.00;;;;;;;33.24;39.33;101918.03;7367802;19;20370;-62
2022/07/16 10:53:58;;;;;;;0.00;0.00;;;;;;;33.63;38.16;101928.59;7368571;19;20038;-63
2022/07/16 10:56:35;;;;;;;0.00;0.00;;;;;;;33.95;37.11;101932.59;7367883;19;21064;-62
2022/07/16 10:59:06;;;;;;;0.00;0.00;;;;;;;34.19;35.70;101932.78;7364775;19;20022;-62
2022/07/16 11:01:32;;;;;;;0.00;0.00;;;;;;;34.37;34.81;101921.88;7367290;19;20070;-63
2022/07/16 11:03:57;;;;;;;0.00;0.00;;;;;;;34.74;31.41;101928.88;7365682;19;20021;-62
2022/07/16 11:06:23;;;;;;;0.10;0.10;;;;;;;34.90;33.48;101928.06;7350262;19;20017;-63
2022/07/16 11:08:53;;;;;;;0.00;0.00;;;;;;;35.11;34.11;101920.34;7359900;19;20003;-62
2022/07/16 11:11:19;;;;;;;0.00;0.00;;;;;;;35.18;32.42;101920.53;7357314;19;20525;-62
2022/07/16 11:13:48;;;;;;;0.10;0.10;;;;;;;35.42;31.88;101919.72;7363893;19;21132;-62
2022/07/16 11:16:14;;;;;;;0.10;0.10;;;;;;;35.59;31.10;101918.75;7359435;19;20386;-62
2022/07/16 11:18:40;;;;;;;0.10;0.10;;;;;;;35.77;31.86;101918.56;7364214;19;20030;-62
2022/07/16 11:21:07;;;;;;;0.00;0.00;;;;;;;36.01;31.15;101905.00;7360064;19;20059;-62
2022/07/16 11:23:55;;;;;;;0.10;0.10;;;;;;;36.56;33.24;101909.63;7359061;19;20014;-61
2022/07/16 11:26:22;;;;;;;0.00;0.00;;;;;;;36.56;31.35;101900.63;7357288;19;20053;-62
2022/07/16 11:29:00;;;;;;;0.00;0.00;;;;;;;37.00;31.76;101910.94;7357069;19;20081;-62
2022/07/16 11:31:31;;;;;;;0.00;0.00;;;;;;;37.11;28.96;101913.28;7349044;19;20020;-62